sensor_id;sensor_type;location;lat;lon;timestamp;pressure;altitude;pressure_sealevel;temperature;humidity
9059;BME280;4564;42.034;25.834;2023-05-12T00:00:42;100695.88;;;9.26;95.49
9059;BME280;4564;42.034;25.834;2023-05-12T00:03:09;100699.75;;;9.23;95.24
9059;BME280;4564;42.034;25.834;2023-05-12T00:05:35;100684.69;;;9.21;95.20
9059;BME280;4564;42.034;25.834;2023-05-12T00:08:02;100692.13;;;9.19;95.84
9059;BME280;4564;42.034;25.834;2023-05-12T00:10:30;100677.94;;;9.17;95.39
9059;BME280;4564;42.034;25.834;2023-05-12T00:12:56;100690.78;;;9.15;95.74
9059;BME280;4564;42.034;25.834;2023-05-12T00:15:23;100690.09;;;9.05;95.83
9059;BME280;4564;42.034;25.834;2023-05-12T00:17:50;100689.09;;;9.06;96.11
9059;BME280;4564;42.034;25.834;2023-05-12T00:20:16;100691.09;;;9.04;95.79
9059;BME280;4564;42.034;25.834;2023-05-12T00:22:43;100687.22;;;9.06;95.11
9059;BME280;4564;42.034;25.834;2023-05-12T00:25:10;100686.38;;;9.06;95.71
9059;BME280;4564;42.034;25.834;2023-05-12T00:27:38;100687.41;;;9.05;95.71
9059;BME280;4564;42.034;25.834;2023-05-12T00:30:05;100679.44;;;8.95;95.70
9059;BME280;4564;42.034;25.834;2023-05-12T00:32:32;100686.53;;;8.96;95.63
9059;BME280;4564;42.034;25.834;2023-05-12T00:34:58;100686.00;;;8.93;96.02
9059;BME280;4564;42.034;25.834;2023-05-12T00:37:25;100689.41;;;8.95;96.49
9059;BME280;4564;42.034;25.834;2023-05-12T00:39:52;100693.13;;;8.94;95.92
9059;BME280;4564;42.034;25.834;2023-05-12T00:42:19;100685.16;;;8.92;95.85
9059;BME280;4564;42.034;25.834;2023-05-12T00:44:47;100690.56;;;8.92;96.01
9059;BME280;4564;42.034;25.834;2023-05-12T00:47:14;100686.88;;;8.93;96.41
9059;BME280;4564;42.034;25.834;2023-05-12T00:49:40;100681.25;;;8.87;95.87
9059;BME280;4564;42.034;25.834;2023-05-12T00:52:07;100685.31;;;8.82;96.38
9059;BME280;4564;42.034;25.834;2023-05-12T00:54:34;100685.50;;;8.97;96.37
9059;BME280;4564;42.034;25.834;2023-05-12T00:57:01;100683.34;;;9.01;95.19
9059;BME280;4564;42.034;25.834;2023-05-12T00:59:27;100684.84;;;8.95;95.35
9059;BME280;4564;42.034;25.834;2023-05-12T01:01:55;100693.13;;;8.94;94.91
9059;BME280;4564;42.034;25.834;2023-05-12T01:04:22;100694.63;;;8.88;95.69
9059;BME280;4564;42.034;25.834;2023-05-12T01:06:52;100692.44;;;8.83;95.97
9059;BME280;4564;42.034;25.834;2023-05-12T01:09:19;100690.75;;;8.82;96.20
9059;BME280;4564;42.034;25.834;2023-05-12T01:11:46;100692.25;;;8.77;95.85
9059;BME280;4564;42.034;25.834;2023-05-12T01:14:12;100692.25;;;8.77;95.99
9059;BME280;4564;42.034;25.834;2023-05-12T01:16:40;100693.91;;;8.70;96.18
9059;BME280;4564;42.034;25.834;2023-05-12T01:19:13;100688.34;;;8.71;96.34
9059;BME280;4564;42.034;25.834;2023-05-12T01:21:40;100689.34;;;8.70;96.45
9059;BME280;4564;42.034;25.834;2023-05-12T01:24:07;100696.13;;;8.66;96.14
9059;BME280;4564;42.034;25.834;2023-05-12T01:26:35;100687.16;;;8.66;96.94
9059;BME280;4564;42.034;25.834;2023-05-12T01:29:02;100680.88;;;8.57;97.02
9059;BME280;4564;42.034;25.834;2023-05-12T01:31:29;100675.28;;;8.51;97.75
9059;BME280;4564;42.034;25.834;2023-05-12T01:33:57;100668.16;;;8.50;97.42
9059;BME280;4564;42.034;25.834;2023-05-12T01:36:23;100679.50;;;8.53;98.11
9059;BME280;4564;42.034;25.834;2023-05-12T01:38:50;100670.03;;;8.49;97.67
9059;BME280;4564;42.034;25.834;2023-05-12T01:41:16;100673.38;;;8.43;97.87
9059;BME280;4564;42.034;25.834;2023-05-12T01:43:44;100668.88;;;8.52;96.92
9059;BME280;4564;42.034;25.834;2023-05-12T01:46:11;100673.72;;;8.40;96.83
9059;BME280;4564;42.034;25.834;2023-05-12T01:48:38;100670.13;;;8.31;97.86
9059;BME280;4564;42.034;25.834;2023-05-12T01:51:05;100671.94;;;8.23;98.57
9059;BME280;4564;42.034;25.834;2023-05-12T01:53:32;100666.22;;;8.26;99.54
9059;BME280;4564;42.034;25.834;2023-05-12T01:55:59;100670.31;;;8.30;99.67
9059;BME280;4564;42.034;25.834;2023-05-12T01:58:25;100678.41;;;8.30;99.32
9059;BME280;4564;42.034;25.834;2023-05-12T02:00:54;100679.63;;;8.35;99.15
9059;BME280;4564;42.034;25.834;2023-05-12T02:03:20;100625.19;;;7.96;98.07
9059;BME280;4564;42.034;25.834;2023-05-12T02:05:47;100680.41;;;8.28;99.17
9059;BME280;4564;42.034;25.834;2023-05-12T02:08:13;100683.84;;;8.30;98.96
9059;BME280;4564;42.034;25.834;2023-05-12T02:10:40;100685.25;;;8.16;99.52
9059;BME280;4564;42.034;25.834;2023-05-12T02:13:06;100687.09;;;8.16;99.63
9059;BME280;4564;42.034;25.834;2023-05-12T02:15:33;100683.09;;;8.20;100.00
9059;BME280;4564;42.034;25.834;2023-05-12T02:18:01;100687.84;;;8.26;100.00
9059;BME280;4564;42.034;25.834;2023-05-12T02:20:28;100694.56;;;8.22;100.00
9059;BME280;4564;42.034;25.834;2023-05-12T02:22:55;100690.34;;;8.19;100.00
9059;BME280;4564;42.034;25.834;2023-05-12T02:25:21;100685.16;;;8.26;99.71
9059;BME280;4564;42.034;25.834;2023-05-12T02:27:48;100690.56;;;8.26;100.00
9059;BME280;4564;42.034;25.834;2023-05-12T02:30:14;100679.75;;;8.26;99.93
9059;BME280;4564;42.034;25.834;2023-05-12T02:32:41;100689.84;;;8.24;99.99
9059;BME280;4564;42.034;25.834;2023-05-12T02:35:09;100684.44;;;8.24;100.00
9059;BME280;4564;42.034;25.834;2023-05-12T02:37:36;100686.16;;;8.25;100.00
9059;BME280;4564;42.034;25.834;2023-05-12T02:40:03;100680.56;;;8.26;100.00
9059;BME280;4564;42.034;25.834;2023-05-12T02:42:30;100677.22;;;8.32;99.54
9059;BME280;4564;42.034;25.834;2023-05-12T02:44:59;100684.69;;;8.30;100.00
9059;BME280;4564;42.034;25.834;2023-05-12T02:47:26;100685.28;;;8.24;100.00
9059;BME280;4564;42.034;25.834;2023-05-12T02:49:55;100684.69;;;8.30;99.69
9059;BME280;4564;42.034;25.834;2023-05-12T02:52:23;100685.34;;;8.32;99.96
9059;BME280;4564;42.034;25.834;2023-05-12T02:54:50;100685.53;;;8.31;99.87
9059;BME280;4564;42.034;25.834;2023-05-12T02:57:16;100682.00;;;8.38;100.00
9059;BME280;4564;42.034;25.834;2023-05-12T02:59:43;100684.53;;;8.40;99.92
9059;BME280;4564;42.034;25.834;2023-05-12T03:02:10;100689.44;;;8.36;100.00
9059;BME280;4564;42.034;25.834;2023-05-12T03:04:37;100697.72;;;8.35;99.55
9059;BME280;4564;42.034;25.834;2023-05-12T03:07:03;100695.50;;;8.30;100.00
9059;BME280;4564;42.034;25.834;2023-05-12T03:09:31;100701.19;;;8.27;100.00
9059;BME280;4564;42.034;25.834;2023-05-12T03:11:58;100700.06;;;8.30;100.00
9059;BME280;4564;42.034;25.834;2023-05-12T03:14:25;100700.16;;;8.20;99.70
9059;BME280;4564;42.034;25.834;2023-05-12T03:16:52;100696.59;;;8.20;99.44
9059;BME280;4564;42.034;25.834;2023-05-12T03:19:19;100703.56;;;7.96;100.00
9059;BME280;4564;42.034;25.834;2023-05-12T03:21:45;100702.88;;;7.94;100.00
9059;BME280;4564;42.034;25.834;2023-05-12T03:24:12;100702.97;;;8.11;100.00
9059;BME280;4564;42.034;25.834;2023-05-12T03:26:40;100709.47;;;8.26;100.00
9059;BME280;4564;42.034;25.834;2023-05-12T03:29:06;100714.09;;;8.33;100.00
9059;BME280;4564;42.034;25.834;2023-05-12T03:31:33;100713.34;;;8.23;99.69
9059;BME280;4564;42.034;25.834;2023-05-12T03:34:00;100710.22;;;8.10;99.67
9059;BME280;4564;42.034;25.834;2023-05-12T03:36:27;100719.75;;;8.22;100.00
9059;BME280;4564;42.034;25.834;2023-05-12T03:38:55;100717.97;;;8.31;99.70
9059;BME280;4564;42.034;25.834;2023-05-12T03:41:22;100715.28;;;8.31;99.09
9059;BME280;4564;42.034;25.834;2023-05-12T03:43:50;100718.69;;;8.41;98.63
9059;BME280;4564;42.034;25.834;2023-05-12T03:46:16;100727.66;;;8.50;98.66
9059;BME280;4564;42.034;25.834;2023-05-12T03:48:43;100730.06;;;8.61;98.29
9059;BME280;4564;42.034;25.834;2023-05-12T03:51:10;100732.84;;;8.77;97.49
9059;BME280;4564;42.034;25.834;2023-05-12T03:53:36;100731.69;;;8.88;96.67
9059;BME280;4564;42.034;25.834;2023-05-12T03:56:04;100737.78;;;8.98;95.24
9059;BME280;4564;42.034;25.834;2023-05-12T03:58:31;100739.84;;;8.96;94.55
9059;BME280;4564;42.034;25.834;2023-05-12T04:00:59;100742.88;;;9.01;93.79
9059;BME280;4564;42.034;25.834;2023-05-12T04:03:26;100741.53;;;9.05;93.63
9059;BME280;4564;42.034;25.834;2023-05-12T04:05:56;100740.38;;;9.15;93.94
9059;BME280;4564;42.034;25.834;2023-05-12T04:08:23;100741.38;;;9.31;93.36
9059;BME280;4564;42.034;25.834;2023-05-12T04:10:50;100745.97;;;9.54;92.79
9059;BME280;4564;42.034;25.834;2023-05-12T04:13:17;100755.44;;;9.66;91.68
9059;BME280;4564;42.034;25.834;2023-05-12T04:15:43;100752.06;;;9.64;90.84
9059;BME280;4564;42.034;25.834;2023-05-12T04:18:11;100755.44;;;9.50;91.23
9059;BME280;4564;42.034;25.834;2023-05-12T04:20:38;100754.09;;;9.62;91.87
9059;BME280;4564;42.034;25.834;2023-05-12T04:23:04;100753.91;;;9.80;91.05
9059;BME280;4564;42.034;25.834;2023-05-12T04:25:31;100749.16;;;9.98;89.62
9059;BME280;4564;42.034;25.834;2023-05-12T04:27:58;100760.31;;;10.11;89.24
9059;BME280;4564;42.034;25.834;2023-05-12T04:30:24;100763.84;;;10.28;88.51
9059;BME280;4564;42.034;25.834;2023-05-12T04:32:51;100746.84;;;10.42;87.41
9059;BME280;4564;42.034;25.834;2023-05-12T04:35:19;100751.25;;;10.51;87.26
9059;BME280;4564;42.034;25.834;2023-05-12T04:37:46;100756.84;;;10.81;86.21
9059;BME280;4564;42.034;25.834;2023-05-12T04:40:13;100759.00;;;10.93;85.98
9059;BME280;4564;42.034;25.834;2023-05-12T04:42:40;100749.38;;;11.14;85.60
9059;BME280;4564;42.034;25.834;2023-05-12T04:45:07;100747.03;;;11.33;84.50
9059;BME280;4564;42.034;25.834;2023-05-12T04:47:33;100756.09;;;11.49;84.30
9059;BME280;4564;42.034;25.834;2023-05-12T04:50:00;100750.94;;;11.54;83.86
9059;BME280;4564;42.034;25.834;2023-05-12T04:52:28;100749.13;;;11.92;82.72
9059;BME280;4564;42.034;25.834;2023-05-12T04:54:54;100753.19;;;12.25;81.44
9059;BME280;4564;42.034;25.834;2023-05-12T04:57:21;100750.63;;;12.53;80.02
9059;BME280;4564;42.034;25.834;2023-05-12T04:59:48;100761.31;;;12.69;78.22
9059;BME280;4564;42.034;25.834;2023-05-12T05:02:14;100757.22;;;12.73;78.78
9059;BME280;4564;42.034;25.834;2023-05-12T05:04:41;100756.47;;;12.79;78.74
9059;BME280;4564;42.034;25.834;2023-05-12T05:07:07;100755.31;;;13.24;77.56
9059;BME280;4564;42.034;25.834;2023-05-12T05:09:35;100760.84;;;13.31;76.88
9059;BME280;4564;42.034;25.834;2023-05-12T05:12:02;100763.06;;;13.42;76.71
9059;BME280;4564;42.034;25.834;2023-05-12T05:14:29;100763.19;;;13.55;75.98
9059;BME280;4564;42.034;25.834;2023-05-12T05:16:55;100760.69;;;13.18;77.12
9059;BME280;4564;42.034;25.834;2023-05-12T05:19:22;100767.22;;;13.38;75.88
9059;BME280;4564;42.034;25.834;2023-05-12T05:21:48;100764.53;;;13.66;76.88
9059;BME280;4564;42.034;25.834;2023-05-12T05:24:15;100770.47;;;14.46;74.47
9059;BME280;4564;42.034;25.834;2023-05-12T05:26:43;100770.16;;;15.23;71.86
9059;BME280;4564;42.034;25.834;2023-05-12T05:29:11;100762.94;;;15.89;68.96
9059;BME280;4564;42.034;25.834;2023-05-12T05:31:37;100766.94;;;16.00;67.35
9059;BME280;4564;42.034;25.834;2023-05-12T05:34:04;100760.97;;;17.13;63.85
9059;BME280;4564;42.034;25.834;2023-05-12T05:36:30;100761.88;;;17.39;61.45
9059;BME280;4564;42.034;25.834;2023-05-12T05:38:58;100766.25;;;18.34;59.26
9059;BME280;4564;42.034;25.834;2023-05-12T05:41:24;100762.22;;;19.09;54.74
9059;BME280;4564;42.034;25.834;2023-05-12T05:43:52;100761.53;;;19.44;52.34
9059;BME280;4564;42.034;25.834;2023-05-12T05:46:19;100761.19;;;19.70;51.31
9059;BME280;4564;42.034;25.834;2023-05-12T05:48:45;100752.97;;;20.51;51.65
9059;BME280;4564;42.034;25.834;2023-05-12T05:51:12;100761.16;;;21.66;45.49
9059;BME280;4564;42.034;25.834;2023-05-12T05:53:39;100755.69;;;21.55;46.21
9059;BME280;4564;42.034;25.834;2023-05-12T05:56:05;100757.22;;;22.07;44.38
9059;BME280;4564;42.034;25.834;2023-05-12T05:58:32;100753.75;;;23.37;41.19
9059;BME280;4564;42.034;25.834;2023-05-12T06:01:00;100753.44;;;24.56;37.08
9059;BME280;4564;42.034;25.834;2023-05-12T06:03:27;100756.59;;;25.27;34.13
9059;BME280;4564;42.034;25.834;2023-05-12T06:05:54;100754.47;;;24.40;35.73
9059;BME280;4564;42.034;25.834;2023-05-12T06:08:21;100753.63;;;24.08;35.82
9059;BME280;4564;42.034;25.834;2023-05-12T06:10:47;100751.16;;;23.48;37.45
9059;BME280;4564;42.034;25.834;2023-05-12T06:13:14;100754.53;;;22.29;39.24
9059;BME280;4564;42.034;25.834;2023-05-12T06:15:41;100751.59;;;21.41;40.92
9059;BME280;4564;42.034;25.834;2023-05-12T06:18:09;100748.69;;;20.32;43.89
9059;BME280;4564;42.034;25.834;2023-05-12T06:20:35;100752.00;;;19.99;45.43
9059;BME280;4564;42.034;25.834;2023-05-12T06:23:02;100754.69;;;19.76;46.29
9059;BME280;4564;42.034;25.834;2023-05-12T06:25:28;100757.78;;;19.38;47.37
9059;BME280;4564;42.034;25.834;2023-05-12T06:27:57;100757.25;;;18.45;49.55
9059;BME280;4564;42.034;25.834;2023-05-12T06:30:24;100768.28;;;17.95;52.04
9059;BME280;4564;42.034;25.834;2023-05-12T06:32:51;100752.75;;;17.45;52.99
9059;BME280;4564;42.034;25.834;2023-05-12T06:35:19;100761.50;;;17.29;54.44
9059;BME280;4564;42.034;25.834;2023-05-12T06:37:45;100756.16;;;17.02;55.27
9059;BME280;4564;42.034;25.834;2023-05-12T06:40:15;100750.88;;;17.07;55.74
9059;BME280;4564;42.034;25.834;2023-05-12T06:42:42;100761.09;;;17.32;55.16
9059;BME280;4564;42.034;25.834;2023-05-12T06:45:09;100758.44;;;17.50;54.83
9059;BME280;4564;42.034;25.834;2023-05-12T06:47:37;100757.56;;;17.87;52.73
9059;BME280;4564;42.034;25.834;2023-05-12T06:50:05;100759.56;;;17.74;52.70
9059;BME280;4564;42.034;25.834;2023-05-12T06:52:33;100757.28;;;17.95;52.26
9059;BME280;4564;42.034;25.834;2023-05-12T06:55:00;100762.94;;;17.76;52.86
9059;BME280;4564;42.034;25.834;2023-05-12T06:57:27;100771.25;;;17.63;53.75
9059;BME280;4564;42.034;25.834;2023-05-12T06:59:53;100766.81;;;17.24;54.39
9059;BME280;4564;42.034;25.834;2023-05-12T07:02:20;100763.31;;;17.10;55.61
9059;BME280;4564;42.034;25.834;2023-05-12T07:04:46;100756.31;;;17.14;55.71
9059;BME280;4564;42.034;25.834;2023-05-12T07:07:13;100766.47;;;17.13;56.14
9059;BME280;4564;42.034;25.834;2023-05-12T07:09:41;100757.56;;;17.18;55.84
9059;BME280;4564;42.034;25.834;2023-05-12T07:12:09;100757.84;;;17.10;56.63
9059;BME280;4564;42.034;25.834;2023-05-12T07:14:36;100747.72;;;17.10;55.93
9059;BME280;4564;42.034;25.834;2023-05-12T07:17:02;100757.66;;;17.43;55.31
9059;BME280;4564;42.034;25.834;2023-05-12T07:19:29;100753.13;;;17.55;54.34
9059;BME280;4564;42.034;25.834;2023-05-12T07:21:56;100763.00;;;17.69;54.42
9059;BME280;4564;42.034;25.834;2023-05-12T07:24:22;100762.53;;;17.72;54.14
9059;BME280;4564;42.034;25.834;2023-05-12T07:26:50;100762.47;;;18.03;52.63
9059;BME280;4564;42.034;25.834;2023-05-12T07:29:17;100754.25;;;18.28;51.90
9059;BME280;4564;42.034;25.834;2023-05-12T07:31:44;100753.75;;;18.74;51.69
9059;BME280;4564;42.034;25.834;2023-05-12T07:34:10;100756.66;;;18.98;49.83
9059;BME280;4564;42.034;25.834;2023-05-12T07:36:37;100763.66;;;19.12;48.71
9059;BME280;4564;42.034;25.834;2023-05-12T07:39:04;100765.63;;;19.23;48.78
9059;BME280;4564;42.034;25.834;2023-05-12T07:41:31;100763.41;;;19.32;48.99
9059;BME280;4564;42.034;25.834;2023-05-12T07:43:59;100760.97;;;19.23;48.84
9059;BME280;4564;42.034;25.834;2023-05-12T07:46:26;100752.91;;;19.82;46.78
9059;BME280;4564;42.034;25.834;2023-05-12T07:48:53;100746.50;;;20.46;45.68
9059;BME280;4564;42.034;25.834;2023-05-12T07:51:20;100747.34;;;20.23;45.42
9059;BME280;4564;42.034;25.834;2023-05-12T07:53:46;100749.53;;;20.56;45.27
9059;BME280;4564;42.034;25.834;2023-05-12T07:56:13;100756.47;;;20.59;45.30
9059;BME280;4564;42.034;25.834;2023-05-12T07:58:39;100754.44;;;20.54;44.35
9059;BME280;4564;42.034;25.834;2023-05-12T08:01:07;100757.66;;;20.28;44.97
9059;BME280;4564;42.034;25.834;2023-05-12T08:03:34;100759.41;;;19.99;46.08
9059;BME280;4564;42.034;25.834;2023-05-12T08:06:01;100752.56;;;19.78;46.99
9059;BME280;4564;42.034;25.834;2023-05-12T08:08:30;100761.94;;;19.89;46.40
9059;BME280;4564;42.034;25.834;2023-05-12T08:10:56;100760.59;;;19.80;46.59
9059;BME280;4564;42.034;25.834;2023-05-12T08:13:23;100765.34;;;19.13;47.27
9059;BME280;4564;42.034;25.834;2023-05-12T08:15:50;100766.00;;;18.60;48.59
9059;BME280;4564;42.034;25.834;2023-05-12T08:18:18;100761.56;;;18.77;48.40
9059;BME280;4564;42.034;25.834;2023-05-12T08:20:45;100763.69;;;18.75;48.55
9059;BME280;4564;42.034;25.834;2023-05-12T08:23:14;100757.41;;;18.68;48.43
9059;BME280;4564;42.034;25.834;2023-05-12T08:25:41;100749.56;;;18.72;47.86
9059;BME280;4564;42.034;25.834;2023-05-12T08:28:08;100751.78;;;18.81;47.69
9059;BME280;4564;42.034;25.834;2023-05-12T08:30:35;100750.94;;;18.81;47.83
9059;BME280;4564;42.034;25.834;2023-05-12T08:33:02;100749.75;;;19.07;47.73
9059;BME280;4564;42.034;25.834;2023-05-12T08:35:30;100750.03;;;18.87;48.13
9059;BME280;4564;42.034;25.834;2023-05-12T08:37:57;100757.16;;;19.06;48.57
9059;BME280;4564;42.034;25.834;2023-05-12T08:40:23;100747.59;;;19.27;46.99
9059;BME280;4564;42.034;25.834;2023-05-12T08:42:52;100756.72;;;19.09;47.99
9059;BME280;4564;42.034;25.834;2023-05-12T08:45:22;100765.63;;;19.23;46.33
9059;BME280;4564;42.034;25.834;2023-05-12T08:47:49;100750.28;;;19.15;46.11
9059;BME280;4564;42.034;25.834;2023-05-12T08:50:20;100748.47;;;19.39;47.02
9059;BME280;4564;42.034;25.834;2023-05-12T08:52:49;100753.38;;;19.67;45.78
9059;BME280;4564;42.034;25.834;2023-05-12T08:55:16;100751.16;;;19.46;45.53
9059;BME280;4564;42.034;25.834;2023-05-12T08:57:43;100750.63;;;19.67;45.76
9059;BME280;4564;42.034;25.834;2023-05-12T09:00:12;100748.06;;;20.07;44.61
9059;BME280;4564;42.034;25.834;2023-05-12T09:02:39;100743.28;;;20.02;45.48
9059;BME280;4564;42.034;25.834;2023-05-12T09:05:08;100751.06;;;20.17;45.15
9059;BME280;4564;42.034;25.834;2023-05-12T09:07:35;100738.56;;;20.03;44.10
9059;BME280;4564;42.034;25.834;2023-05-12T09:10:04;100728.06;;;20.23;43.25
9059;BME280;4564;42.034;25.834;2023-05-12T09:12:33;100739.88;;;19.89;44.34
9059;BME280;4564;42.034;25.834;2023-05-12T09:15:03;100741.09;;;19.93;44.01
9059;BME280;4564;42.034;25.834;2023-05-12T09:17:31;100732.31;;;19.73;42.90
9059;BME280;4564;42.034;25.834;2023-05-12T09:19:58;100734.88;;;20.09;42.76
9059;BME280;4564;42.034;25.834;2023-05-12T09:22:28;100738.09;;;20.76;41.75
9059;BME280;4564;42.034;25.834;2023-05-12T09:24:55;100745.56;;;20.52;41.25
9059;BME280;4564;42.034;25.834;2023-05-12T09:27:26;100737.16;;;20.47;42.31
9059;BME280;4564;42.034;25.834;2023-05-12T09:29:53;100737.28;;;20.52;40.71
9059;BME280;4564;42.034;25.834;2023-05-12T09:32:28;100734.59;;;20.80;41.00
9059;BME280;4564;42.034;25.834;2023-05-12T09:34:55;100737.38;;;20.69;40.52
9059;BME280;4564;42.034;25.834;2023-05-12T09:37:28;100737.88;;;20.54;40.30
9059;BME280;4564;42.034;25.834;2023-05-12T09:39:57;100737.78;;;20.49;40.86
9059;BME280;4564;42.034;25.834;2023-05-12T09:42:27;100740.03;;;20.64;41.18
9059;BME280;4564;42.034;25.834;2023-05-12T09:44:56;100735.06;;;20.89;40.68
9059;BME280;4564;42.034;25.834;2023-05-12T09:47:25;100735.47;;;20.69;40.64
9059;BME280;4564;42.034;25.834;2023-05-12T09:49:52;100734.38;;;20.70;40.93
9059;BME280;4564;42.034;25.834;2023-05-12T09:52:19;100731.88;;;21.20;40.70
9059;BME280;4564;42.034;25.834;2023-05-12T09:54:46;100735.59;;;21.14;40.47
9059;BME280;4564;42.034;25.834;2023-05-12T09:57:14;100735.28;;;20.99;39.19
9059;BME280;4564;42.034;25.834;2023-05-12T09:59:42;100735.59;;;21.14;39.44
9059;BME280;4564;42.034;25.834;2023-05-12T10:02:09;100730.09;;;21.14;40.10
9059;BME280;4564;42.034;25.834;2023-05-12T10:04:41;100731.03;;;21.08;40.88
9059;BME280;4564;42.034;25.834;2023-05-12T10:07:10;100727.34;;;21.03;40.38
9059;BME280;4564;42.034;25.834;2023-05-12T10:09:39;100733.56;;;21.38;40.30
9059;BME280;4564;42.034;25.834;2023-05-12T10:12:06;100729.84;;;21.61;38.89
9059;BME280;4564;42.034;25.834;2023-05-12T10:14:33;100726.53;;;20.90;39.89
9059;BME280;4564;42.034;25.834;2023-05-12T10:17:02;100731.41;;;20.25;42.02
9059;BME280;4564;42.034;25.834;2023-05-12T10:19:30;100737.78;;;20.49;41.70
9059;BME280;4564;42.034;25.834;2023-05-12T10:21:58;100730.06;;;20.74;40.32
9059;BME280;4564;42.034;25.834;2023-05-12T10:24:26;100728.03;;;21.10;39.76
9059;BME280;4564;42.034;25.834;2023-05-12T10:26:53;100719.44;;;20.94;39.49
9059;BME280;4564;42.034;25.834;2023-05-12T10:29:21;100730.75;;;20.81;40.33
9059;BME280;4564;42.034;25.834;2023-05-12T10:31:53;100721.66;;;20.81;39.84
9059;BME280;4564;42.034;25.834;2023-05-12T10:34:22;100729.22;;;20.74;39.07
9059;BME280;4564;42.034;25.834;2023-05-12T10:36:50;100714.22;;;20.70;39.17
9059;BME280;4564;42.034;25.834;2023-05-12T10:39:18;100706.69;;;21.05;39.35
9059;BME280;4564;42.034;25.834;2023-05-12T10:41:45;100710.44;;;21.27;39.17
9059;BME280;4564;42.034;25.834;2023-05-12T10:44:11;100710.34;;;21.22;40.01
9059;BME280;4564;42.034;25.834;2023-05-12T10:46:38;100705.25;;;21.03;39.87
9059;BME280;4564;42.034;25.834;2023-05-12T10:49:06;100707.84;;;20.81;39.32
9059;BME280;4564;42.034;25.834;2023-05-12T10:51:45;100701.16;;;20.77;39.50
9059;BME280;4564;42.034;25.834;2023-05-12T10:54:17;100704.56;;;20.95;38.73
9059;BME280;4564;42.034;25.834;2023-05-12T10:56:44;100705.50;;;21.01;38.52
9059;BME280;4564;42.034;25.834;2023-05-12T10:59:12;100697.44;;;20.71;38.36
9059;BME280;4564;42.034;25.834;2023-05-12T11:01:41;100694.22;;;20.63;39.85
9059;BME280;4564;42.034;25.834;2023-05-12T11:04:09;100699.31;;;20.94;38.81
9059;BME280;4564;42.034;25.834;2023-05-12T11:06:37;100696.81;;;21.21;38.44
9059;BME280;4564;42.034;25.834;2023-05-12T11:09:03;100695.50;;;21.40;38.03
9059;BME280;4564;42.034;25.834;2023-05-12T11:11:30;100694.91;;;21.10;38.89
9059;BME280;4564;42.034;25.834;2023-05-12T11:13:57;100680.25;;;20.81;39.46
9059;BME280;4564;42.034;25.834;2023-05-12T11:16:24;100689.34;;;20.41;41.08
9059;BME280;4564;42.034;25.834;2023-05-12T11:18:59;100692.25;;;20.35;40.48
9059;BME280;4564;42.034;25.834;2023-05-12T11:21:25;100684.53;;;20.13;40.23
9059;BME280;4564;42.034;25.834;2023-05-12T11:23:55;100687.28;;;20.25;41.39
9059;BME280;4564;42.034;25.834;2023-05-12T11:26:22;100694.97;;;20.23;40.72
9059;BME280;4564;42.034;25.834;2023-05-12T11:28:49;100684.19;;;20.57;39.83
9059;BME280;4564;42.034;25.834;2023-05-12T11:31:16;100685.59;;;20.59;39.96
9059;BME280;4564;42.034;25.834;2023-05-12T11:33:43;100683.19;;;20.63;39.82
9059;BME280;4564;42.034;25.834;2023-05-12T11:36:09;100674.44;;;20.66;38.65
9059;BME280;4564;42.034;25.834;2023-05-12T11:38:36;100675.63;;;20.98;37.92
9059;BME280;4564;42.034;25.834;2023-05-12T11:41:04;100687.28;;;21.28;37.43
9059;BME280;4564;42.034;25.834;2023-05-12T11:43:31;100667.28;;;20.93;37.29
9059;BME280;4564;42.034;25.834;2023-05-12T11:45:58;100667.69;;;21.02;38.03
9059;BME280;4564;42.034;25.834;2023-05-12T11:48:31;100661.16;;;20.91;39.00
9059;BME280;4564;42.034;25.834;2023-05-12T11:50:58;100665.13;;;21.12;38.83
9059;BME280;4564;42.034;25.834;2023-05-12T11:53:25;100665.53;;;21.15;38.34
9059;BME280;4564;42.034;25.834;2023-05-12T11:55:52;100662.91;;;20.69;38.28
9059;BME280;4564;42.034;25.834;2023-05-12T11:58:21;100666.34;;;20.24;39.44
9059;BME280;4564;42.034;25.834;2023-05-12T12:00:50;100664.66;;;20.00;39.17
9059;BME280;4564;42.034;25.834;2023-05-12T12:03:16;100652.91;;;20.04;39.32
9059;BME280;4564;42.034;25.834;2023-05-12T12:05:43;100665.84;;;20.04;39.72
9059;BME280;4564;42.034;25.834;2023-05-12T12:08:11;100670.16;;;19.77;39.09
9059;BME280;4564;42.034;25.834;2023-05-12T12:10:38;100661.06;;;19.53;39.78
9059;BME280;4564;42.034;25.834;2023-05-12T12:13:08;100652.31;;;19.67;39.16
9059;BME280;4564;42.034;25.834;2023-05-12T12:15:36;100653.50;;;19.72;38.78
9059;BME280;4564;42.034;25.834;2023-05-12T12:18:03;100656.38;;;19.65;39.03
9059;BME280;4564;42.034;25.834;2023-05-12T12:20:30;100653.63;;;19.65;39.49
9059;BME280;4564;42.034;25.834;2023-05-12T12:22:56;100653.06;;;19.75;40.06
9059;BME280;4564;42.034;25.834;2023-05-12T12:25:23;100652.81;;;19.88;38.90
9059;BME280;4564;42.034;25.834;2023-05-12T12:27:50;100656.78;;;19.92;38.69
9059;BME280;4564;42.034;25.834;2023-05-12T12:30:17;100647.78;;;19.85;39.39
9059;BME280;4564;42.034;25.834;2023-05-12T12:32:45;100653.75;;;19.93;39.88
9059;BME280;4564;42.034;25.834;2023-05-12T12:35:12;100643.59;;;19.59;39.21
9059;BME280;4564;42.034;25.834;2023-05-12T12:37:39;100669.06;;;19.54;39.50
9059;BME280;4564;42.034;25.834;2023-05-12T12:40:06;100658.25;;;19.41;39.55
9059;BME280;4564;42.034;25.834;2023-05-12T12:42:34;100658.47;;;19.40;39.79
9059;BME280;4564;42.034;25.834;2023-05-12T12:45:01;100653.97;;;19.45;39.75
9059;BME280;4564;42.034;25.834;2023-05-12T12:47:28;100660.09;;;19.47;39.27
9059;BME280;4564;42.034;25.834;2023-05-12T12:49:56;100654.31;;;19.49;39.29
9059;BME280;4564;42.034;25.834;2023-05-12T12:52:23;100646.81;;;19.67;38.48
9059;BME280;4564;42.034;25.834;2023-05-12T12:54:49;100641.66;;;19.71;39.63
9059;BME280;4564;42.034;25.834;2023-05-12T12:57:16;100643.94;;;19.62;39.54
9059;BME280;4564;42.034;25.834;2023-05-12T12:59:44;100653.97;;;19.45;40.00
9059;BME280;4564;42.034;25.834;2023-05-12T13:02:10;100611.16;;;19.19;40.07